Time;durP1;ratioP1;P1;durP2;ratioP2;P2;SDS_P1;SDS_P2;PMS_P1;PMS_P2;Temp;Humidity;BMP_temperature;BMP_pressure;BME280_temperature;BME280_humidity;BME280_pressure;Samples;Min_cycle;Max_cycle;Signal;HPM_P1;HPM_P2
2023/03/31 00:02:12;;;;;;;1.27;1.02;;;8.40;99.90;;;;;;5034657;28;20098;-77
2023/03/31 00:04:45;;;;;;;1.20;1.10;;;8.40;99.90;;;;;;5026517;28;20026;-77
2023/03/31 00:07:15;;;;;;;0.98;0.98;;;8.40;99.90;;;;;;5018941;28;20014;-77
2023/03/31 00:09:44;;;;;;;1.13;1.00;;;8.40;99.90;;;;;;5015456;28;20018;-77
2023/03/31 00:12:12;;;;;;;0.88;0.88;;;8.40;99.90;;;;;;5018347;28;20025;-78
2023/03/31 00:14:38;;;;;;;1.77;1.33;;;8.40;99.90;;;;;;5020953;28;20041;-78
2023/03/31 00:17:03;;;;;;;1.17;0.95;;;8.30;99.90;;;;;;5020083;28;20080;-78
2023/03/31 00:19:32;;;;;;;1.00;0.90;;;8.40;99.90;;;;;;5016889;28;20455;-76
2023/03/31 00:22:01;;;;;;;1.60;1.00;;;8.40;99.90;;;;;;5034446;28;20152;-77
2023/03/31 00:24:31;;;;;;;0.90;0.90;;;8.50;99.90;;;;;;5033801;28;20082;-76
2023/03/31 00:27:04;;;;;;;1.30;0.77;;;8.50;99.90;;;;;;5035048;28;20513;-78
2023/03/31 00:29:32;;;;;;;1.13;0.70;;;8.50;99.90;;;;;;5023203;28;20022;-77
2023/03/31 00:31:58;;;;;;;0.80;0.80;;;8.60;99.90;;;;;;5015718;28;20487;-78
2023/03/31 00:34:25;;;;;;;1.00;0.90;;;8.60;99.90;;;;;;4996907;28;20109;-78
2023/03/31 00:36:55;;;;;;;0.75;0.75;;;8.60;99.90;;;;;;5014492;28;20074;-77
2023/03/31 00:39:22;;;;;;;1.15;1.05;;;8.70;99.90;;;;;;5014517;28;20392;-77
2023/03/31 00:41:49;;;;;;;0.82;0.80;;;8.80;99.90;;;;;;5020266;28;20038;-76
2023/03/31 00:44:26;;;;;;;0.60;0.60;;;8.80;99.90;;;;;;5018159;28;20451;-77
2023/03/31 00:46:56;;;;;;;0.80;0.80;;;8.80;99.90;;;;;;5013870;28;20017;-76
2023/03/31 00:49:29;;;;;;;0.63;0.63;;;8.90;99.90;;;;;;5014567;28;20060;-78
2023/03/31 00:52:01;;;;;;;1.10;0.98;;;8.90;99.90;;;;;;5036208;28;20382;-78
2023/03/31 00:54:28;;;;;;;0.93;0.80;;;8.90;99.90;;;;;;5037977;28;20053;-77
2023/03/31 00:56:57;;;;;;;0.75;0.75;;;9.00;99.90;;;;;;5038207;28;20029;-77
2023/03/31 00:59:26;;;;;;;0.90;0.90;;;9.00;99.90;;;;;;5037771;28;20112;-78
2023/03/31 01:01:58;;;;;;;1.73;0.85;;;9.00;99.90;;;;;;5037565;28;20544;-77
2023/03/31 01:04:24;;;;;;;1.20;1.02;;;9.10;99.90;;;;;;5013329;28;20077;-77
2023/03/31 01:07:04;;;;;;;1.20;1.05;;;9.10;99.90;;;;;;5018123;28;20018;-78
2023/03/31 01:09:33;;;;;;;1.35;1.25;;;9.10;99.90;;;;;;5017725;28;20034;-76
2023/03/31 01:12:05;;;;;;;1.63;1.23;;;9.10;99.90;;;;;;5018287;28;20399;-77
2023/03/31 01:14:31;;;;;;;0.77;0.70;;;9.10;99.90;;;;;;4998961;28;20053;-76
2023/03/31 01:16:57;;;;;;;1.35;1.08;;;9.20;99.90;;;;;;5016972;28;20188;-77
2023/03/31 01:19:44;;;;;;;0.93;0.90;;;9.20;99.90;;;;;;5025426;28;20037;-76
2023/03/31 01:22:44;;;;;;;0.80;0.70;;;9.20;99.90;;;;;;5037723;28;20026;-76
2023/03/31 01:25:16;;;;;;;0.60;0.60;;;9.20;99.90;;;;;;5035996;28;20417;-77
2023/03/31 01:28:00;;;;;;;0.73;0.73;;;9.20;99.90;;;;;;5037054;28;20025;-77
2023/03/31 01:30:41;;;;;;;0.70;0.70;;;9.20;99.90;;;;;;5023343;28;20355;-77
2023/03/31 01:33:07;;;;;;;0.50;0.50;;;9.20;99.90;;;;;;5017022;28;20026;-77
2023/03/31 01:35:57;;;;;;;0.60;0.60;;;9.10;99.90;;;;;;5016224;28;20045;-77
2023/03/31 01:39:00;;;;;;;0.80;0.80;;;9.10;99.90;;;;;;5012892;28;20034;-78
2023/03/31 01:41:52;;;;;;;0.50;0.50;;;9.00;99.90;;;;;;5018100;28;20151;-76
2023/03/31 01:44:21;;;;;;;;;;;9.00;99.90;;;;;;5017596;28;20622;-77
2023/03/31 01:46:57;;;;;;;0.60;0.60;;;8.90;99.90;;;;;;5017927;28;19968;-77
2023/03/31 01:49:39;;;;;;;0.80;0.80;;;9.00;99.90;;;;;;5017909;28;20211;-77
2023/03/31 01:52:42;;;;;;;0.50;0.50;;;9.00;99.90;;;;;;5019184;28;20033;-77
2023/03/31 01:55:55;;;;;;;0.68;0.65;;;9.10;99.90;;;;;;4989189;28;20030;-79
2023/03/31 01:58:25;;;;;;;0.85;0.65;;;9.10;99.90;;;;;;4996227;28;20095;-77
2023/03/31 02:01:00;;;;;;;0.70;0.70;;;9.20;99.90;;;;;;5037449;28;20382;-77
2023/03/31 02:03:33;;;;;;;0.50;0.50;;;9.30;99.90;;;;;;5017920;28;20083;-77
2023/03/31 02:06:15;;;;;;;0.63;0.63;;;9.30;99.90;;;;;;5000222;28;20096;-77
2023/03/31 02:08:47;;;;;;;0.60;0.60;;;9.30;99.90;;;;;;5016881;28;20569;-77
2023/03/31 02:11:13;;;;;;;0.82;0.80;;;9.30;99.90;;;;;;5017715;28;20037;-77
2023/03/31 02:13:43;;;;;;;0.95;0.70;;;9.30;99.90;;;;;;5016720;28;20026;-77
2023/03/31 02:16:17;;;;;;;0.88;0.70;;;9.30;99.90;;;;;;5019078;28;20120;-77
2023/03/31 02:18:45;;;;;;;1.00;0.90;;;9.30;99.90;;;;;;5032291;28;20331;-76
2023/03/31 02:21:13;;;;;;;1.05;1.00;;;9.30;99.90;;;;;;5044725;28;20079;-78
2023/03/31 02:23:43;;;;;;;2.47;1.20;;;9.30;99.90;;;;;;5035124;28;20435;-76
2023/03/31 02:26:26;;;;;;;1.15;1.05;;;9.30;99.90;;;;;;5051930;28;20053;-76
2023/03/31 02:28:52;;;;;;;1.17;1.08;;;9.30;99.90;;;;;;5034717;28;20065;-76
2023/03/31 02:31:31;;;;;;;0.85;0.80;;;9.30;99.90;;;;;;5033022;28;20030;-78
2023/03/31 02:33:56;;;;;;;1.15;1.02;;;9.40;99.90;;;;;;5014790;28;20037;-77
2023/03/31 02:36:23;;;;;;;1.23;1.13;;;9.40;99.90;;;;;;5077340;23;20376;-76
2023/03/31 02:38:57;;;;;;;1.45;1.20;;;9.40;99.90;;;;;;5076790;28;20027;-76
2023/03/31 02:41:23;;;;;;;2.05;1.13;;;9.40;99.90;;;;;;5079408;28;20068;-76
2023/03/31 02:43:49;;;;;;;1.02;0.93;;;9.40;99.90;;;;;;5097427;28;20082;-75
2023/03/31 02:46:15;;;;;;;1.50;1.23;;;9.40;99.90;;;;;;5099136;28;20047;-76
2023/03/31 02:48:49;;;;;;;0.88;0.82;;;9.40;99.90;;;;;;5110808;28;20028;-74
2023/03/31 02:51:21;;;;;;;0.85;0.82;;;9.50;99.90;;;;;;5097656;28;20028;-74
2023/03/31 02:54:01;;;;;;;1.43;0.90;;;9.50;99.90;;;;;;5110692;28;20131;-75
2023/03/31 02:56:51;;;;;;;5.78;2.42;;;9.40;99.90;;;;;;5100552;28;20491;-76
2023/03/31 02:59:41;;;;;;;3.67;2.63;;;9.40;99.90;;;;;;5096791;28;20055;-75
2023/03/31 03:02:33;;;;;;;3.38;2.10;;;9.40;99.90;;;;;;5091186;28;20028;-75
2023/03/31 03:05:25;;;;;;;3.67;2.05;;;9.40;99.90;;;;;;5092843;28;20032;-75
2023/03/31 03:08:24;;;;;;;3.55;2.38;;;9.40;99.90;;;;;;5111905;28;20031;-75
2023/03/31 03:11:20;;;;;;;3.17;2.33;;;9.30;99.90;;;;;;5117335;28;20028;-73
2023/03/31 03:13:54;;;;;;;2.03;1.85;;;9.30;99.90;;;;;;5099885;28;20026;-73
2023/03/31 03:16:41;;;;;;;3.25;2.20;;;9.40;99.90;;;;;;5098985;28;20028;-75
2023/03/31 03:19:07;;;;;;;1.88;1.45;;;9.40;99.90;;;;;;5098441;28;20012;-77
2023/03/31 03:21:33;;;;;;;2.92;1.92;;;9.40;99.90;;;;;;5105120;28;20024;-76
2023/03/31 03:24:00;;;;;;;2.10;1.90;;;9.40;99.90;;;;;;5079848;28;20043;-77
2023/03/31 03:26:27;;;;;;;3.53;2.10;;;9.40;99.90;;;;;;5079590;28;20488;-74
2023/03/31 03:28:56;;;;;;;3.05;1.95;;;9.40;99.90;;;;;;5098408;28;20024;-77
2023/03/31 03:31:22;;;;;;;2.33;1.90;;;9.40;99.90;;;;;;5100470;28;20054;-75
2023/03/31 03:33:52;;;;;;;1.77;1.50;;;9.40;99.90;;;;;;5100087;28;20054;-76
2023/03/31 03:36:18;;;;;;;2.95;2.00;;;9.30;99.90;;;;;;5098129;28;20040;-76
2023/03/31 03:38:44;;;;;;;1.92;1.73;;;9.30;99.90;;;;;;5082708;28;20028;-76
2023/03/31 03:41:09;;;;;;;1.70;1.60;;;9.20;99.90;;;;;;5094221;28;20046;-76
2023/03/31 03:43:35;;;;;;;2.03;1.58;;;9.20;99.90;;;;;;5092819;28;20024;-76
2023/03/31 03:46:01;;;;;;;2.47;1.88;;;9.20;99.90;;;;;;5101200;28;20127;-75
2023/03/31 03:48:27;;;;;;;1.92;1.77;;;9.10;99.90;;;;;;5115154;28;20053;-75
2023/03/31 03:50:53;;;;;;;1.60;1.50;;;9.10;99.90;;;;;;5114710;28;20099;-74
2023/03/31 03:53:19;;;;;;;2.17;1.60;;;9.10;99.90;;;;;;5114860;28;20015;-77
2023/03/31 03:55:47;;;;;;;2.60;2.05;;;9.10;99.90;;;;;;5114040;28;20005;-74
2023/03/31 03:58:15;;;;;;;3.00;2.10;;;9.10;99.90;;;;;;5115888;28;20020;-75
2023/03/31 04:00:41;;;;;;;4.22;2.42;;;9.10;99.90;;;;;;5115844;28;20020;-75
2023/03/31 04:03:07;;;;;;;3.72;2.03;;;9.10;99.90;;;;;;5097167;28;20039;-76
2023/03/31 04:05:33;;;;;;;2.38;1.67;;;9.10;99.90;;;;;;5113903;28;20036;-77
2023/03/31 04:07:59;;;;;;;3.15;2.05;;;9.10;99.90;;;;;;5113565;28;20063;-75
2023/03/31 04:10:24;;;;;;;2.20;1.80;;;9.10;99.90;;;;;;5113990;28;20060;-76
2023/03/31 04:12:50;;;;;;;2.08;1.88;;;9.10;99.90;;;;;;5113600;28;20012;-74
2023/03/31 04:15:16;;;;;;;2.47;1.70;;;9.10;99.90;;;;;;5099591;28;20088;-75
2023/03/31 04:17:47;;;;;;;2.70;1.75;;;9.10;99.90;;;;;;5093379;28;20036;-74
2023/03/31 04:20:13;;;;;;;1.45;1.35;;;9.10;99.90;;;;;;5092053;28;20028;-77
2023/03/31 04:22:39;;;;;;;2.35;1.85;;;9.10;99.90;;;;;;5091568;28;20053;-74
2023/03/31 04:25:13;;;;;;;2.20;2.00;;;9.10;99.90;;;;;;5112503;28;20074;-75
2023/03/31 04:27:45;;;;;;;3.67;1.98;;;9.20;99.90;;;;;;5092040;28;20035;-76
2023/03/31 04:30:21;;;;;;;2.15;1.30;;;9.20;99.90;;;;;;5113311;28;20023;-75
2023/03/31 04:32:49;;;;;;;1.70;1.60;;;9.20;99.90;;;;;;5114603;28;20081;-75
2023/03/31 04:35:19;;;;;;;1.30;1.20;;;9.20;99.90;;;;;;5112467;28;20020;-77
2023/03/31 04:37:49;;;;;;;1.13;1.05;;;9.20;99.90;;;;;;5104261;28;20024;-78
2023/03/31 04:40:16;;;;;;;1.48;1.15;;;9.30;99.90;;;;;;5089464;28;20028;-77
2023/03/31 04:42:43;;;;;;;0.98;0.98;;;9.20;99.90;;;;;;5098946;28;20012;-78
2023/03/31 04:45:10;;;;;;;1.10;1.02;;;9.20;99.90;;;;;;5067991;28;20280;-76
2023/03/31 04:47:36;;;;;;;1.52;1.20;;;9.10;99.90;;;;;;5078866;28;20407;-78
2023/03/31 04:50:01;;;;;;;1.05;0.95;;;9.10;99.90;;;;;;5093665;28;20043;-78
2023/03/31 04:52:27;;;;;;;0.88;0.88;;;9.10;99.90;;;;;;5085828;28;20024;-76
2023/03/31 04:54:53;;;;;;;0.90;0.90;;;9.10;99.90;;;;;;5096180;28;20541;-78
2023/03/31 04:57:18;;;;;;;1.15;1.05;;;9.10;99.90;;;;;;5094717;28;20028;-77
2023/03/31 04:59:44;;;;;;;1.25;0.70;;;9.10;99.90;;;;;;5095023;28;20028;-78
2023/03/31 05:02:10;;;;;;;1.30;1.20;;;9.10;99.90;;;;;;5076300;28;20042;-78
2023/03/31 05:04:36;;;;;;;2.72;1.70;;;9.10;99.90;;;;;;5094357;28;20087;-77
2023/03/31 05:07:02;;;;;;;2.90;1.67;;;9.00;99.90;;;;;;5099846;28;20025;-79
2023/03/31 05:09:28;;;;;;;2.08;1.75;;;9.00;99.90;;;;;;5076391;28;20024;-77
2023/03/31 05:11:54;;;;;;;2.22;2.00;;;8.90;99.90;;;;;;5095055;28;20030;-77
2023/03/31 05:14:20;;;;;;;3.88;2.13;;;8.90;99.90;;;;;;5080770;28;20056;-78
2023/03/31 05:16:45;;;;;;;3.03;2.20;;;8.90;99.90;;;;;;5101992;28;20032;-77
2023/03/31 05:19:11;;;;;;;2.25;2.00;;;8.80;99.90;;;;;;5089872;28;20030;-77
2023/03/31 05:21:37;;;;;;;4.93;2.50;;;8.80;99.90;;;;;;5110119;28;20075;-77
2023/03/31 05:24:03;;;;;;;3.92;1.98;;;8.70;99.90;;;;;;5102577;28;20547;-77
2023/03/31 05:26:29;;;;;;;2.55;2.30;;;8.70;99.90;;;;;;5103050;28;20023;-77
2023/03/31 05:28:55;;;;;;;2.80;2.40;;;8.70;99.90;;;;;;5098123;28;20051;-78
2023/03/31 05:31:21;;;;;;;2.13;1.67;;;8.70;99.90;;;;;;5099100;28;20024;-77
2023/03/31 05:33:47;;;;;;;2.95;2.20;;;8.70;99.90;;;;;;5081206;28;20016;-78
2023/03/31 05:36:15;;;;;;;2.60;1.98;;;8.70;99.90;;;;;;5097781;28;20032;-77
2023/03/31 05:38:41;;;;;;;1.70;1.60;;;8.70;99.90;;;;;;5102328;28;20024;-77
2023/03/31 05:41:08;;;;;;;2.42;1.67;;;8.70;99.90;;;;;;5102367;28;20027;-77
2023/03/31 05:43:35;;;;;;;1.77;1.60;;;8.80;99.90;;;;;;5102330;28;20024;-77
2023/03/31 05:46:01;;;;;;;1.63;1.52;;;8.80;99.90;;;;;;5106824;28;20027;-77
2023/03/31 05:48:27;;;;;;;1.60;1.50;;;8.80;99.90;;;;;;5106322;28;20465;-77
2023/03/31 05:51:00;;;;;;;2.05;1.65;;;8.90;99.90;;;;;;5084729;28;20024;-75
2023/03/31 05:53:26;;;;;;;2.92;2.03;;;9.00;99.90;;;;;;5085534;28;20035;-77
2023/03/31 05:56:02;;;;;;;2.85;2.13;;;9.10;99.90;;;;;;5099045;28;20024;-77
2023/03/31 05:58:29;;;;;;;2.58;2.15;;;9.30;99.90;;;;;;5098699;28;20127;-77
2023/03/31 06:01:06;;;;;;;3.72;1.90;;;9.30;99.90;;;;;;5101339;28;20020;-77
2023/03/31 06:03:37;;;;;;;2.85;2.10;;;9.40;99.90;;;;;;5103793;28;20480;-78
2023/03/31 06:06:07;;;;;;;1.90;1.70;;;9.50;99.90;;;;;;5101551;28;20031;-77
2023/03/31 06:08:34;;;;;;;1.92;1.60;;;9.60;99.90;;;;;;5099970;28;20035;-77
2023/03/31 06:11:02;;;;;;;1.65;1.38;;;9.60;99.90;;;;;;5101722;28;20035;-75
2023/03/31 06:13:28;;;;;;;1.35;1.25;;;9.80;99.90;;;;;;5096259;28;20021;-77
2023/03/31 06:15:55;;;;;;;1.80;1.60;;;10.10;99.90;;;;;;5084173;28;20032;-78
2023/03/31 06:18:21;;;;;;;2.92;1.73;;;10.30;99.90;;;;;;5102810;28;20016;-77
2023/03/31 06:20:46;;;;;;;1.98;1.80;;;10.30;99.90;;;;;;5107599;28;20031;-77
2023/03/31 06:23:12;;;;;;;3.38;2.42;;;10.30;99.90;;;;;;5084780;28;20039;-78
2023/03/31 06:25:38;;;;;;;3.80;2.38;;;10.30;99.90;;;;;;5107405;28;20042;-76
2023/03/31 06:28:05;;;;;;;3.58;2.65;;;10.30;99.90;;;;;;5090837;28;20595;-77
2023/03/31 06:30:31;;;;;;;5.07;3.00;;;10.30;99.90;;;;;;5105534;28;20023;-80
2023/03/31 06:32:56;;;;;;;2.67;2.45;;;10.30;99.90;;;;;;5104100;28;20028;-77
2023/03/31 06:35:22;;;;;;;4.72;2.20;;;10.30;99.90;;;;;;5089314;28;20080;-77
2023/03/31 06:37:48;;;;;;;4.47;2.63;;;10.30;99.90;;;;;;5082424;28;20041;-77
2023/03/31 06:40:13;;;;;;;3.30;2.40;;;10.40;99.90;;;;;;5093190;28;20511;-77
2023/03/31 06:42:40;;;;;;;4.47;1.95;;;10.40;99.90;;;;;;5102775;28;20070;-77
2023/03/31 06:45:07;;;;;;;3.53;2.38;;;10.50;99.90;;;;;;5092238;28;20082;-78
2023/03/31 06:47:32;;;;;;;3.72;2.50;;;10.60;99.90;;;;;;5101945;28;20084;-75
2023/03/31 06:49:58;;;;;;;3.15;2.10;;;10.60;99.90;;;;;;5098831;28;20053;-77
2023/03/31 06:52:24;;;;;;;2.80;2.03;;;10.70;99.90;;;;;;5101440;28;20039;-78
2023/03/31 06:54:49;;;;;;;3.30;2.30;;;10.80;99.90;;;;;;5097357;28;20584;-77
2023/03/31 06:57:15;;;;;;;3.05;1.88;;;10.90;99.90;;;;;;5105461;28;20392;-77
2023/03/31 06:59:42;;;;;;;2.92;1.80;;;10.90;99.90;;;;;;5069937;28;20373;-78
2023/03/31 07:02:09;;;;;;;3.90;2.05;;;10.90;99.90;;;;;;5102275;28;20024;-78
2023/03/31 07:04:35;;;;;;;3.47;2.10;;;10.90;99.90;;;;;;5100619;28;20063;-78
2023/03/31 07:07:04;;;;;;;1.73;1.63;;;10.80;99.90;;;;;;5098513;28;20032;-77
2023/03/31 07:09:30;;;;;;;2.45;1.70;;;10.70;99.90;;;;;;5101514;28;20024;-77
2023/03/31 07:11:56;;;;;;;3.50;2.20;;;10.60;99.90;;;;;;5102256;28;20380;-77
2023/03/31 07:14:22;;;;;;;2.95;1.92;;;10.60;99.90;;;;;;5102495;28;20028;-77
2023/03/31 07:16:49;;;;;;;5.00;2.08;;;10.40;99.90;;;;;;5102538;28;20100;-78
2023/03/31 07:19:18;;;;;;;5.55;2.88;;;10.30;99.90;;;;;;5101890;28;20129;-77
2023/03/31 07:21:44;;;;;;;6.40;3.67;;;10.20;99.90;;;;;;5085585;28;20028;-78
2023/03/31 07:24:10;;;;;;;4.75;3.15;;;10.00;99.90;;;;;;5102785;28;20036;-77
2023/03/31 07:26:36;;;;;;;4.97;2.67;;;9.90;99.90;;;;;;5082645;28;20016;-78
2023/03/31 07:29:02;;;;;;;3.55;2.83;;;9.80;99.90;;;;;;5101746;28;20087;-77
2023/03/31 07:31:28;;;;;;;10.90;3.78;;;9.80;99.90;;;;;;5084564;28;20050;-77
2023/03/31 07:33:53;;;;;;;6.90;3.42;;;9.70;99.90;;;;;;5098714;28;20096;-77
2023/03/31 07:36:19;;;;;;;4.85;3.08;;;9.70;99.90;;;;;;5098337;28;20054;-77
2023/03/31 07:38:49;;;;;;;6.63;3.30;;;9.70;99.90;;;;;;5102774;28;20027;-79
2023/03/31 07:41:19;;;;;;;4.32;2.75;;;9.70;99.90;;;;;;5089763;28;20024;-78
2023/03/31 07:43:46;;;;;;;3.55;2.38;;;9.70;99.90;;;;;;5093204;28;20296;-77
2023/03/31 07:46:22;;;;;;;3.92;2.00;;;9.80;99.90;;;;;;5100965;28;20506;-77
2023/03/31 07:48:51;;;;;;;3.03;2.03;;;9.80;99.90;;;;;;5098290;28;20067;-75
2023/03/31 07:51:20;;;;;;;2.42;2.10;;;9.90;99.90;;;;;;5081209;28;20110;-74
2023/03/31 07:53:51;;;;;;;2.80;1.95;;;9.90;99.90;;;;;;5081502;28;20491;-76
2023/03/31 07:56:18;;;;;;;2.50;1.73;;;9.80;99.90;;;;;;5086785;28;20032;-74
2023/03/31 07:58:45;;;;;;;2.00;1.80;;;9.80;99.90;;;;;;5100666;28;20028;-74
2023/03/31 08:01:16;;;;;;;1.73;1.60;;;9.90;99.90;;;;;;5082358;28;20100;-75
2023/03/31 08:03:43;;;;;;;1.63;1.52;;;10.00;99.90;;;;;;5094643;28;20033;-75
2023/03/31 08:06:09;;;;;;;1.45;1.35;;;10.10;99.90;;;;;;5103894;28;20464;-74
2023/03/31 08:08:37;;;;;;;1.30;1.20;;;10.30;99.90;;;;;;5103393;28;20021;-75
2023/03/31 08:11:03;;;;;;;1.42;1.20;;;10.50;99.90;;;;;;5101780;28;20020;-74
2023/03/31 08:13:29;;;;;;;1.83;1.50;;;10.80;99.90;;;;;;5092660;28;20020;-74
2023/03/31 08:15:55;;;;;;;1.38;1.23;;;11.10;99.90;;;;;;5079848;28;20533;-73
2023/03/31 08:18:21;;;;;;;2.03;1.20;;;11.30;99.90;;;;;;5079130;28;20021;-74
2023/03/31 08:20:48;;;;;;;1.55;1.20;;;11.50;99.90;;;;;;5079801;28;20099;-73
2023/03/31 08:23:14;;;;;;;1.40;1.10;;;11.50;99.90;;;;;;5061149;28;20031;-74
2023/03/31 08:25:41;;;;;;;1.60;1.50;;;11.40;99.90;;;;;;5060160;28;20021;-74
2023/03/31 08:28:12;;;;;;;2.45;1.80;;;11.20;99.90;;;;;;5059177;28;20027;-74
2023/03/31 08:30:39;;;;;;;1.88;1.42;;;11.10;99.90;;;;;;5077910;28;20515;-77
2023/03/31 08:33:06;;;;;;;2.50;1.63;;;11.10;99.90;;;;;;5071518;28;20093;-74
2023/03/31 08:35:33;;;;;;;1.67;1.58;;;11.00;99.90;;;;;;5095309;28;20024;-75
2023/03/31 08:37:59;;;;;;;2.08;1.60;;;11.00;99.90;;;;;;5095848;28;20028;-74
2023/03/31 08:40:27;;;;;;;2.95;1.83;;;11.10;99.90;;;;;;5079985;28;20032;-75
2023/03/31 08:43:01;;;;;;;2.80;1.90;;;11.10;99.90;;;;;;5094746;28;20077;-74
2023/03/31 08:45:35;;;;;;;4.20;1.80;;;11.20;99.90;;;;;;5078863;28;20074;-74
2023/03/31 08:48:09;;;;;;;5.03;2.17;;;11.20;99.90;;;;;;5076742;28;20101;-75
2023/03/31 08:50:44;;;;;;;6.45;3.15;;;11.10;99.90;;;;;;5080087;28;20047;-74
2023/03/31 08:53:24;;;;;;;4.97;3.28;;;11.00;99.90;;;;;;5082886;28;20021;-75
2023/03/31 08:55:52;;;;;;;8.90;3.28;;;10.90;99.90;;;;;;5074535;28;20073;-74
2023/03/31 08:58:29;;;;;;;5.00;2.95;;;10.80;99.90;;;;;;5075835;28;20025;-73
2023/03/31 09:01:18;;;;;;;8.45;2.88;;;10.80;99.90;;;;;;5075444;28;20027;-73
2023/03/31 09:03:57;;;;;;;5.40;2.97;;;11.00;99.90;;;;;;5074525;28;20024;-73
2023/03/31 09:06:36;;;;;;;5.63;2.60;;;11.10;99.90;;;;;;5075264;28;20104;-74
2023/03/31 09:09:08;;;;;;;2.92;2.38;;;11.30;99.90;;;;;;5074153;28;20392;-74
2023/03/31 09:11:35;;;;;;;3.83;2.40;;;11.50;99.90;;;;;;5095886;28;20111;-74
2023/03/31 09:14:35;;;;;;;4.60;2.60;;;11.60;99.90;;;;;;5097570;28;20029;-74
2023/03/31 09:17:26;;;;;;;4.28;2.75;;;11.90;99.70;;;;;;5098324;28;20482;-74
2023/03/31 09:20:30;;;;;;;7.13;2.33;;;12.10;98.90;;;;;;5099206;28;20042;-74
2023/03/31 09:23:21;;;;;;;2.50;2.20;;;12.20;98.30;;;;;;5017056;28;20526;-74
2023/03/31 09:25:47;;;;;;;3.83;2.00;;;12.30;97.90;;;;;;5095583;28;20059;-74
2023/03/31 09:28:21;;;;;;;2.78;2.10;;;12.60;97.60;;;;;;5098925;28;20086;-74
2023/03/31 09:30:50;;;;;;;2.05;1.70;;;13.00;96.70;;;;;;5099876;28;20115;-73
2023/03/31 09:33:30;;;;;;;5.07;2.53;;;13.40;95.90;;;;;;5098495;28;20055;-73
2023/03/31 09:36:13;;;;;;;2.50;2.03;;;13.90;94.50;;;;;;5097772;28;20028;-73
2023/03/31 09:38:41;;;;;;;3.65;2.28;;;14.30;93.70;;;;;;5100707;28;20043;-73
2023/03/31 09:41:08;;;;;;;4.07;2.38;;;14.50;92.60;;;;;;5097683;28;20056;-72
2023/03/31 09:43:40;;;;;;;3.50;2.10;;;14.60;91.90;;;;;;5095469;28;20061;-74
2023/03/31 09:46:30;;;;;;;4.38;1.95;;;14.70;91.80;;;;;;5077327;28;20028;-75
2023/03/31 09:49:01;;;;;;;5.20;1.75;;;15.00;90.10;;;;;;5077041;28;20029;-74
2023/03/31 09:51:33;;;;;;;4.28;2.03;;;15.40;89.10;;;;;;5079265;28;20346;-73
2023/03/31 09:54:02;;;;;;;;;;;15.50;87.20;;;;;;5078862;28;20024;-73
2023/03/31 09:56:32;;;;;;;2.38;1.67;;;15.30;86.90;;;;;;5087817;28;19911;-73
2023/03/31 09:59:02;;;;;;;2.38;1.58;;;15.20;86.70;;;;;;5093424;28;20074;-72
2023/03/31 10:01:28;;;;;;;2.25;1.60;;;14.90;88.00;;;;;;5075530;28;20021;-74
2023/03/31 10:03:55;;;;;;;3.03;1.60;;;14.70;88.30;;;;;;5093289;28;20032;-74
2023/03/31 10:06:23;;;;;;;1.35;1.25;;;14.80;89.00;;;;;;5086732;28;20036;-74
2023/03/31 10:08:56;;;;;;;3.90;1.83;;;15.10;88.70;;;;;;5081247;28;20066;-74
2023/03/31 10:11:23;;;;;;;2.28;1.52;;;15.20;87.70;;;;;;5079486;28;20610;-74
2023/03/31 10:14:12;;;;;;;2.15;1.83;;;15.30;87.20;;;;;;5098367;28;20016;-73
2023/03/31 10:16:56;;;;;;;2.38;1.60;;;15.20;86.00;;;;;;5090858;28;20099;-73
2023/03/31 10:19:28;;;;;;;3.95;1.88;;;15.50;85.50;;;;;;5099005;28;20040;-74
2023/03/31 10:22:00;;;;;;;5.93;1.88;;;15.80;83.50;;;;;;5100690;28;20380;-74
2023/03/31 10:24:37;;;;;;;5.07;1.52;;;16.10;82.20;;;;;;5098958;28;20020;-73
2023/03/31 10:27:06;;;;;;;1.95;1.50;;;16.20;81.20;;;;;;5081087;28;20464;-74
2023/03/31 10:29:33;;;;;;;3.00;1.95;;;15.90;81.60;;;;;;5098278;28;20008;-73
2023/03/31 10:32:14;;;;;;;1.65;1.50;;;15.60;82.70;;;;;;5100330;28;20075;-73
2023/03/31 10:34:41;;;;;;;1.52;1.35;;;15.40;84.20;;;;;;5079972;28;20016;-73
2023/03/31 10:37:13;;;;;;;3.75;1.98;;;15.50;85.90;;;;;;5080340;28;20148;-74
2023/03/31 10:39:39;;;;;;;;;;;16.10;84.70;;;;;;5097875;28;20055;-74
2023/03/31 10:42:06;;;;;;;3.05;1.85;;;16.50;82.40;;;;;;5097181;28;19930;-74
2023/03/31 10:44:37;;;;;;;4.85;2.00;;;16.80;81.30;;;;;;5095811;28;20069;-74
2023/03/31 10:47:14;;;;;;;3.17;1.90;;;17.10;79.00;;;;;;5097772;28;20032;-74
2023/03/31 10:49:42;;;;;;;1.88;1.73;;;17.20;78.70;;;;;;5098474;28;20077;-74
2023/03/31 10:52:22;;;;;;;3.30;1.70;;;17.60;77.70;;;;;;5081785;28;20526;-75
2023/03/31 10:54:57;;;;;;;3.53;1.83;;;17.60;76.60;;;;;;5104711;28;20100;-73
2023/03/31 10:57:56;;;;;;;3.28;2.30;;;17.40;75.50;;;;;;5080012;28;20054;-73
2023/03/31 11:00:41;;;;;;;3.20;1.95;;;17.20;75.50;;;;;;5097392;28;20024;-74
2023/03/31 11:03:10;;;;;;;5.75;2.13;;;17.00;75.80;;;;;;5096950;28;20044;-74
2023/03/31 11:05:58;;;;;;;2.25;1.73;;;17.20;76.10;;;;;;5097362;28;20094;-73
2023/03/31 11:08:47;;;;;;;4.45;2.17;;;17.30;75.40;;;;;;5097636;28;20097;-73
2023/03/31 11:11:30;;;;;;;5.63;2.17;;;16.90;75.20;;;;;;5097069;28;20013;-75
2023/03/31 11:14:05;;;;;;;4.20;2.65;;;16.40;76.40;;;;;;5075991;28;20119;-75
2023/03/31 11:16:36;;;;;;;4.22;2.28;;;15.90;77.40;;;;;;5076497;28;20013;-73
2023/03/31 11:19:13;;;;;;;2.67;2.00;;;15.50;78.70;;;;;;5076515;28;20024;-73
2023/03/31 11:21:45;;;;;;;1.83;1.73;;;15.10;80.40;;;;;;5095276;28;20036;-74
2023/03/31 11:24:18;;;;;;;4.97;1.93;;;14.80;82.20;;;;;;5099159;28;20077;-74
2023/03/31 11:27:22;;;;;;;5.85;2.20;;;14.50;83.70;;;;;;5096863;28;20071;-73
2023/03/31 11:30:16;;;;;;;6.45;1.50;;;14.20;85.20;;;;;;5094295;28;20069;-74
2023/03/31 11:33:00;;;;;;;1.73;0.88;;;13.30;85.30;;;;;;5118641;22;20497;-76
2023/03/31 11:35:35;;;;;;;7.47;1.40;;;12.50;89.40;;;;;;5074733;28;20025;-75
2023/03/31 11:38:39;;;;;;;1.20;0.82;;;11.70;91.70;;;;;;5090669;28;20047;-75
2023/03/31 11:41:33;;;;;;;2.35;0.80;;;11.40;93.10;;;;;;5057944;28;20028;-76
2023/03/31 11:44:10;;;;;;;1.30;1.13;;;11.30;94.30;;;;;;5029545;28;20098;-74
2023/03/31 11:46:45;;;;;;;1.73;1.08;;;11.30;94.50;;;;;;5074192;28;20175;-74
2023/03/31 11:49:16;;;;;;;3.35;0.77;;;11.50;94.50;;;;;;5074774;28;20025;-74
2023/03/31 11:51:55;;;;;;;1.25;0.80;;;11.70;94.30;;;;;;5069818;28;20474;-75
2023/03/31 11:54:35;;;;;;;1.63;0.82;;;12.00;94.10;;;;;;5056627;28;20053;-74
2023/03/31 11:57:09;;;;;;;3.00;1.40;;;12.20;93.70;;;;;;5070680;28;20029;-75
2023/03/31 11:59:37;;;;;;;2.40;1.25;;;12.40;93.50;;;;;;5073820;28;20572;-74
2023/03/31 12:02:14;;;;;;;2.95;1.10;;;12.50;93.20;;;;;;5073540;28;20039;-75
2023/03/31 12:04:45;;;;;;;1.38;1.20;;;12.60;92.80;;;;;;5063488;28;20028;-74
2023/03/31 12:07:21;;;;;;;1.92;0.90;;;12.80;92.60;;;;;;5073059;28;20107;-76
2023/03/31 12:10:05;;;;;;;2.58;0.98;;;13.10;92.30;;;;;;5072144;28;20447;-75
2023/03/31 12:13:15;;;;;;;1.42;0.73;;;13.40;91.10;;;;;;5055776;28;20023;-76
2023/03/31 12:15:47;;;;;;;1.50;0.93;;;13.80;90.20;;;;;;5052484;28;20130;-75
2023/03/31 12:18:17;;;;;;;1.33;1.00;;;14.20;89.00;;;;;;5073434;28;20112;-74
2023/03/31 12:21:03;;;;;;;1.85;0.88;;;14.60;88.10;;;;;;5077220;28;20070;-77
2023/03/31 12:23:43;;;;;;;0.98;0.80;;;15.10;85.90;;;;;;5073084;28;20024;-75
2023/03/31 12:26:17;;;;;;;2.83;0.73;;;15.50;83.70;;;;;;5071045;28;20122;-75
2023/03/31 12:28:44;;;;;;;4.20;0.90;;;15.60;81.80;;;;;;5075556;28;20101;-75
2023/03/31 12:31:19;;;;;;;3.63;0.93;;;15.40;80.60;;;;;;5072526;28;20017;-76
2023/03/31 12:34:12;;;;;;;1.50;0.98;;;15.20;81.10;;;;;;5063582;28;20141;-75
2023/03/31 12:37:27;;;;;;;0.70;0.70;;;15.20;81.80;;;;;;5049899;28;20071;-75
2023/03/31 12:40:11;;;;;;;2.20;0.95;;;15.20;81.30;;;;;;5043615;28;20080;-74
2023/03/31 12:42:54;;;;;;;3.72;0.98;;;15.30;81.00;;;;;;5054661;28;20021;-74
2023/03/31 12:45:27;;;;;;;1.80;1.38;;;15.10;80.30;;;;;;5072197;28;20025;-74
2023/03/31 12:48:25;;;;;;;1.40;0.98;;;15.00;80.70;;;;;;5076957;28;20477;-74
2023/03/31 12:51:14;;;;;;;2.50;0.98;;;15.00;80.50;;;;;;5079201;28;20104;-74
2023/03/31 12:53:43;;;;;;;4.75;1.25;;;14.80;80.60;;;;;;5079215;28;20066;-75
2023/03/31 12:56:09;;;;;;;2.50;1.25;;;14.60;81.30;;;;;;5078360;28;20426;-75
2023/03/31 12:58:40;;;;;;;3.50;1.35;;;14.50;82.00;;;;;;5078532;28;20097;-74
2023/03/31 13:01:21;;;;;;;1.90;1.10;;;14.50;82.20;;;;;;5076770;28;20028;-75
2023/03/31 13:03:50;;;;;;;3.35;1.38;;;14.80;82.00;;;;;;5048858;28;20048;-75
2023/03/31 13:06:25;;;;;;;2.70;1.15;;;15.10;80.90;;;;;;5071957;28;20027;-75
2023/03/31 13:08:59;;;;;;;4.97;1.50;;;15.60;78.50;;;;;;5080090;28;20082;-76
2023/03/31 13:11:36;;;;;;;4.35;1.30;;;15.60;76.30;;;;;;5080773;28;20108;-75
2023/03/31 13:14:11;;;;;;;1.27;0.95;;;15.40;72.20;;;;;;5089295;28;20044;-76
2023/03/31 13:16:37;;;;;;;3.15;0.93;;;15.10;70.70;;;;;;5083861;28;20107;-74
2023/03/31 13:19:03;;;;;;;2.58;0.90;;;14.90;67.70;;;;;;5078992;28;20100;-75
2023/03/31 13:21:51;;;;;;;3.67;0.95;;;14.60;66.20;;;;;;5073955;28;20377;-79